createdAt,value
2018-06-03T00:01:31.799Z,16.90
2018-06-03T00:03:59.940Z,16.80
2018-06-03T00:06:27.995Z,16.90
2018-06-03T00:08:56.044Z,16.90
2018-06-03T00:11:24.100Z,16.70
2018-06-03T00:13:52.152Z,16.60
2018-06-03T00:16:20.212Z,16.60
2018-06-03T00:18:48.251Z,16.70
2018-06-03T00:21:29.083Z,16.70
2018-06-03T00:23:57.156Z,16.70
2018-06-03T00:26:25.211Z,16.60
2018-06-03T00:28:54.028Z,16.60
2018-06-03T00:31:22.091Z,16.60
2018-06-03T00:33:50.077Z,16.70
2018-06-03T00:36:30.726Z,16.60
2018-06-03T00:38:58.740Z,16.50
2018-06-03T00:41:27.506Z,16.30
2018-06-03T00:43:55.515Z,16.30
2018-06-03T00:46:24.286Z,16.30
2018-06-03T00:48:52.299Z,16.30
2018-06-03T00:51:21.071Z,16.20
2018-06-03T00:53:49.090Z,16.20
2018-06-03T00:56:29.675Z,16.00
2018-06-03T00:58:57.699Z,16.00
2018-06-03T01:01:25.694Z,16.00
2018-06-03T01:03:53.721Z,15.90
2018-06-03T01:06:22.495Z,16.10
2018-06-03T01:08:50.498Z,16.00
2018-06-03T01:11:19.263Z,16.10
2018-06-03T01:13:47.266Z,16.00
2018-06-03T01:16:15.259Z,16.00
2018-06-03T01:18:44.023Z,15.80
2018-06-03T01:21:12.025Z,15.70
2018-06-03T01:23:40.026Z,15.70
2018-06-03T01:26:08.787Z,15.70
2018-06-03T01:28:36.807Z,15.60
2018-06-03T01:31:04.797Z,15.60
2018-06-03T01:33:33.563Z,15.50
2018-06-03T01:36:01.555Z,15.40
2018-06-03T01:38:29.575Z,15.50
2018-06-03T01:40:58.343Z,15.40
2018-06-03T01:43:26.358Z,15.30
2018-06-03T01:45:55.126Z,15.40
2018-06-03T01:48:23.137Z,15.30
2018-06-03T01:50:51.882Z,15.40
2018-06-03T01:53:19.884Z,15.40
2018-06-03T01:55:47.874Z,15.50
2018-06-03T01:58:15.895Z,15.30
2018-06-03T02:00:43.888Z,15.20
2018-06-03T02:03:11.905Z,15.30
2018-06-03T02:05:39.903Z,15.30
2018-06-03T02:08:07.919Z,15.10
2018-06-03T02:10:36.679Z,15.00
2018-06-03T02:13:04.692Z,14.90
2018-06-03T02:15:33.446Z,15.00
2018-06-03T02:18:01.456Z,14.90
2018-06-03T02:20:29.450Z,15.00
2018-06-03T02:22:58.243Z,14.90
2018-06-03T02:25:26.252Z,14.90
2018-06-03T02:27:55.022Z,14.80
2018-06-03T02:30:23.027Z,14.70
2018-06-03T02:32:51.779Z,14.70
2018-06-03T02:35:19.795Z,14.60
2018-06-03T02:37:47.788Z,14.80
2018-06-03T02:40:15.807Z,14.80
2018-06-03T02:42:43.804Z,14.70
2018-06-03T02:45:11.806Z,14.70
2018-06-03T02:47:39.803Z,14.80
2018-06-03T02:50:07.809Z,14.70
2018-06-03T02:52:36.555Z,14.70
2018-06-03T02:55:04.575Z,14.60
2018-06-03T02:57:32.576Z,14.80
2018-06-03T03:00:01.351Z,14.90
2018-06-03T03:02:29.343Z,14.80
2018-06-03T03:04:57.351Z,14.80
2018-06-03T03:07:26.126Z,14.80
2018-06-03T03:09:54.126Z,14.80
2018-06-03T03:12:22.879Z,14.70
2018-06-03T03:14:50.884Z,14.70
2018-06-03T03:17:18.878Z,14.70
2018-06-03T03:19:47.658Z,14.50
2018-06-03T03:22:15.664Z,14.50
2018-06-03T03:24:43.662Z,14.60
2018-06-03T03:27:12.419Z,14.50
2018-06-03T03:29:40.461Z,14.40
2018-06-03T03:32:08.460Z,14.50
2018-06-03T03:34:36.459Z,14.50
2018-06-03T03:37:04.459Z,14.50
2018-06-03T03:39:32.472Z,14.60
2018-06-03T03:42:01.231Z,14.60
2018-06-03T03:44:29.239Z,14.50
2018-06-03T03:46:57.244Z,14.60
2018-06-03T03:49:26.007Z,14.60
2018-06-03T03:51:54.011Z,14.50
2018-06-03T03:54:22.800Z,14.70
2018-06-03T03:56:50.787Z,14.60
2018-06-03T03:59:18.795Z,14.70
2018-06-03T04:01:47.559Z,14.80
2018-06-03T04:04:15.571Z,14.70
2018-06-03T04:06:44.343Z,14.70
2018-06-03T04:09:12.359Z,14.60
2018-06-03T04:11:41.113Z,14.70
2018-06-03T04:14:09.119Z,14.70
2018-06-03T04:16:37.116Z,14.80
2018-06-03T04:19:05.888Z,14.90
2018-06-03T04:21:33.879Z,14.80
2018-06-03T04:24:01.889Z,14.80
2018-06-03T04:26:30.642Z,15.00
2018-06-03T04:28:58.670Z,14.90
2018-06-03T04:31:27.463Z,15.30
2018-06-03T04:33:55.466Z,15.20
2018-06-03T04:36:24.252Z,15.40
2018-06-03T04:38:52.240Z,15.30
2018-06-03T04:41:21.060Z,15.60
2018-06-03T04:43:49.004Z,15.60
2018-06-03T04:46:17.011Z,15.70
2018-06-03T04:48:45.035Z,15.80
2018-06-03T04:51:13.015Z,15.80
2018-06-03T04:53:41.024Z,15.90
2018-06-03T04:56:09.031Z,16.00
2018-06-03T04:58:37.790Z,16.20
2018-06-03T05:01:05.790Z,16.20
2018-06-03T05:03:33.796Z,16.30
2018-06-03T05:06:01.798Z,16.30
2018-06-03T05:08:29.799Z,16.40
2018-06-03T05:10:57.818Z,16.30
2018-06-03T05:13:25.835Z,16.30
2018-06-03T05:15:54.602Z,16.20
2018-06-03T05:18:22.602Z,16.10
2018-06-03T05:20:51.379Z,16.30
2018-06-03T05:23:19.366Z,16.20
2018-06-03T05:25:47.383Z,16.40
2018-06-03T05:28:16.145Z,16.50
2018-06-03T05:30:44.154Z,16.50
2018-06-03T05:33:12.927Z,16.50
2018-06-03T05:35:40.943Z,16.50
2018-06-03T05:38:09.719Z,16.70
2018-06-03T05:40:37.740Z,16.70
2018-06-03T05:43:06.503Z,16.90
2018-06-03T05:45:34.510Z,16.90
2018-06-03T05:48:03.266Z,17.00
2018-06-03T05:50:31.279Z,17.00
2018-06-03T05:52:59.276Z,17.10
2018-06-03T05:55:27.284Z,17.30
2018-06-03T05:57:55.331Z,17.40
2018-06-03T06:00:23.311Z,17.50
2018-06-03T06:02:51.311Z,17.70
2018-06-03T06:05:20.091Z,18.10
2018-06-03T06:07:49.614Z,18.20
2018-06-03T06:10:17.619Z,18.20
2018-06-03T06:12:46.404Z,18.30
2018-06-03T06:15:14.399Z,18.30
2018-06-03T06:17:43.175Z,18.70
2018-06-03T06:20:11.225Z,18.60
2018-06-03T06:22:39.178Z,18.80
2018-06-03T06:25:07.176Z,18.90
2018-06-03T06:27:35.190Z,18.80
2018-06-03T06:30:03.190Z,19.00
2018-06-03T06:32:31.199Z,19.10
2018-06-03T06:34:59.967Z,19.50
2018-06-03T06:37:27.991Z,19.50
2018-06-03T06:39:55.998Z,19.70
2018-06-03T06:42:24.026Z,19.70
2018-06-03T06:44:52.025Z,19.70
2018-06-03T06:47:20.799Z,19.80
2018-06-03T06:49:48.796Z,19.80
2018-06-03T06:52:16.810Z,19.90
2018-06-03T06:54:44.815Z,20.00
2018-06-03T06:57:13.641Z,20.00
2018-06-03T06:59:41.636Z,20.10
2018-06-03T07:02:09.655Z,20.30
2018-06-03T07:04:38.430Z,20.70
2018-06-03T07:07:06.451Z,20.60
2018-06-03T07:09:34.450Z,20.70
2018-06-03T07:12:02.463Z,20.80
2018-06-03T07:14:30.470Z,20.70
2018-06-03T07:16:58.483Z,20.80
2018-06-03T07:19:26.486Z,20.90
2018-06-03T07:21:54.510Z,21.10
2018-06-03T07:24:22.536Z,21.20
2018-06-03T07:26:50.568Z,21.30
2018-06-03T07:29:18.556Z,21.30
2018-06-03T07:31:46.614Z,21.30
2018-06-03T07:34:15.338Z,21.70
2018-06-03T07:36:43.347Z,21.60
2018-06-03T07:39:12.807Z,21.70
2018-06-03T07:41:40.819Z,21.60
2018-06-03T07:44:08.859Z,21.80
2018-06-03T07:46:36.867Z,21.90
2018-06-03T07:49:04.885Z,21.90
2018-06-03T07:51:32.887Z,22.10
2018-06-03T07:54:01.667Z,22.40
2018-06-03T07:56:29.667Z,22.40
2018-06-03T07:58:58.466Z,22.60
2018-06-03T08:01:27.253Z,22.80
2018-06-03T08:03:55.285Z,22.70
2018-06-03T08:06:23.297Z,22.60
2018-06-03T08:08:51.313Z,22.60
2018-06-03T08:11:20.071Z,23.20
2018-06-03T08:13:48.095Z,23.10
2018-06-03T08:16:17.582Z,23.10
2018-06-03T08:18:45.595Z,23.10
2018-06-03T08:21:14.368Z,23.00
2018-06-03T08:23:42.382Z,23.00
2018-06-03T08:26:11.143Z,23.30
2018-06-03T08:28:39.171Z,23.20
2018-06-03T08:31:07.923Z,23.60
2018-06-03T08:33:35.938Z,23.60
2018-06-03T08:36:03.949Z,23.70
2018-06-03T08:38:32.727Z,23.80
2018-06-03T08:41:01.500Z,23.90
2018-06-03T08:43:29.507Z,23.90
2018-06-03T08:45:57.560Z,23.70
2018-06-03T08:48:25.558Z,23.80
2018-06-03T08:50:54.563Z,23.80
2018-06-03T08:53:22.592Z,24.00
2018-06-03T08:55:50.591Z,24.20
2018-06-03T08:58:18.599Z,24.30
2018-06-03T09:00:46.598Z,24.50
2018-06-03T09:03:14.595Z,24.60
2018-06-03T09:05:43.380Z,24.60
2018-06-03T09:08:11.358Z,24.50
2018-06-03T09:10:39.376Z,24.60
2018-06-03T09:13:08.142Z,24.60
2018-06-03T09:15:36.152Z,24.50
2018-06-03T09:18:04.923Z,24.10
2018-06-03T09:20:32.947Z,24.10
2018-06-03T09:23:01.724Z,23.60
2018-06-03T09:25:29.738Z,23.60
2018-06-03T09:27:57.801Z,23.60
2018-06-03T09:30:25.939Z,23.70
2018-06-03T09:32:54.120Z,23.50
2018-06-03T09:35:22.297Z,23.70
2018-06-03T09:37:50.282Z,24.00
2018-06-03T09:40:18.292Z,24.60
2018-06-03T09:42:46.335Z,25.00
2018-06-03T09:45:14.356Z,25.40
2018-06-03T09:47:42.349Z,25.50
2018-06-03T09:50:10.363Z,25.40
2018-06-03T09:52:39.137Z,24.80
2018-06-03T09:55:07.155Z,24.70
2018-06-03T09:57:35.143Z,25.20
2018-06-03T10:00:03.171Z,25.70
2018-06-03T10:02:31.166Z,26.00
2018-06-03T10:04:59.191Z,25.90
2018-06-03T10:07:27.198Z,26.10
2018-06-03T10:09:55.243Z,26.30
2018-06-03T10:12:24.024Z,26.50
2018-06-03T10:18:02.850Z,26.60
2018-06-03T10:20:31.823Z,26.90
2018-06-03T10:23:00.800Z,27.00
2018-06-03T10:25:29.748Z,26.50
2018-06-03T10:27:58.680Z,26.30
2018-06-03T10:30:27.639Z,25.80
2018-06-03T10:32:56.579Z,25.90
2018-06-03T10:35:25.547Z,26.20
2018-06-03T10:37:54.534Z,26.60
2018-06-03T10:40:23.455Z,26.50
2018-06-03T10:42:52.371Z,26.10
2018-06-03T10:45:21.436Z,26.00
2018-06-03T10:47:50.416Z,25.90
2018-06-03T10:50:19.315Z,26.00
2018-06-03T10:52:48.219Z,26.30
2018-06-03T10:55:17.102Z,26.60
2018-06-03T11:00:14.535Z,27.10
2018-06-03T11:02:43.457Z,27.40
2018-06-03T11:05:12.383Z,27.60
2018-06-03T11:07:41.292Z,27.80
2018-06-03T11:10:10.235Z,27.60
2018-06-03T11:12:39.211Z,27.80
2018-06-03T11:15:08.111Z,27.90
2018-06-03T11:17:37.055Z,28.00
2018-06-03T11:20:06.259Z,28.10
2018-06-03T11:22:35.183Z,28.10
2018-06-03T11:25:04.055Z,28.00
2018-06-03T11:27:32.966Z,28.20
2018-06-03T11:32:30.351Z,28.50
2018-06-03T11:34:59.235Z,28.70
2018-06-03T11:37:28.135Z,28.20
2018-06-03T11:39:57.069Z,28.30
2018-06-03T11:42:26.054Z,28.60
2018-06-03T11:44:55.017Z,28.60
2018-06-03T11:47:24.008Z,28.80
2018-06-03T11:49:52.896Z,29.10
2018-06-03T11:52:22.905Z,28.70
2018-06-03T11:54:51.763Z,28.80
2018-06-03T11:57:20.706Z,28.80
2018-06-03T11:59:49.673Z,29.10
2018-06-03T12:02:19.251Z,29.20
2018-06-03T12:04:48.132Z,29.30
2018-06-03T12:07:17.019Z,29.30
2018-06-03T12:09:45.915Z,29.50
2018-06-03T12:12:14.810Z,29.60
2018-06-03T12:14:43.703Z,29.50
2018-06-03T12:17:12.592Z,29.70
2018-06-03T12:19:41.470Z,29.80
2018-06-03T12:22:10.363Z,29.80
2018-06-03T12:24:39.240Z,29.80
2018-06-03T12:27:08.146Z,29.90
2018-06-03T12:29:37.019Z,29.80
2018-06-03T12:32:05.915Z,30.10
2018-06-03T12:34:34.790Z,30.10
2018-06-03T12:37:03.723Z,30.20
2018-06-03T12:39:32.599Z,30.00
2018-06-03T12:42:01.499Z,30.40
2018-06-03T12:44:30.422Z,30.70
2018-06-03T12:46:59.363Z,30.90
2018-06-03T12:49:28.298Z,31.00
2018-06-03T12:54:25.939Z,30.90
2018-06-03T12:56:54.935Z,31.40
2018-06-03T12:59:23.971Z,31.80
2018-06-03T13:01:52.938Z,32.10
2018-06-03T13:04:22.222Z,32.30
2018-06-03T13:06:51.124Z,32.20
2018-06-03T13:09:20.062Z,32.20
2018-06-03T13:11:48.987Z,31.80
2018-06-03T13:14:18.065Z,31.60
2018-06-03T13:16:47.020Z,31.80
2018-06-03T13:19:15.992Z,32.00
2018-06-03T13:21:45.000Z,32.30
2018-06-03T13:24:14.196Z,32.20
2018-06-03T13:26:43.155Z,32.20
2018-06-03T13:29:12.300Z,32.20
2018-06-03T13:31:41.275Z,32.10
2018-06-03T13:34:10.317Z,32.20
2018-06-03T13:36:39.203Z,32.20
2018-06-03T13:39:08.144Z,32.70
2018-06-03T13:41:37.034Z,32.50
2018-06-03T13:44:06.027Z,33.00
2018-06-03T13:46:34.911Z,33.10
2018-06-03T13:49:03.973Z,33.60
2018-06-03T13:51:33.070Z,33.70
2018-06-03T13:54:02.230Z,33.90
2018-06-03T13:56:31.270Z,34.00
2018-06-03T13:59:00.299Z,34.10
2018-06-03T14:01:29.195Z,34.30
2018-06-03T14:06:28.054Z,34.20
2018-06-03T14:08:56.967Z,34.50
2018-06-03T14:11:25.967Z,34.10
2018-06-03T14:13:55.149Z,33.80
2018-06-03T14:16:24.100Z,33.10
2018-06-03T14:18:53.135Z,33.40
2018-06-03T14:21:22.035Z,33.30
2018-06-03T14:23:50.946Z,33.40
2018-06-03T14:26:19.814Z,33.60
2018-06-03T14:28:48.726Z,34.20
2018-06-03T14:31:17.599Z,34.30
2018-06-03T14:33:46.555Z,34.50
2018-06-03T14:36:15.447Z,34.20
2018-06-03T14:38:44.355Z,33.90
2018-06-03T14:41:13.262Z,34.20
2018-06-03T14:43:42.175Z,34.10
2018-06-03T14:46:11.417Z,34.00
2018-06-03T14:48:40.303Z,34.50
2018-06-03T14:51:09.194Z,34.80
2018-06-03T14:53:38.103Z,34.90
2018-06-03T14:56:06.999Z,35.30
2018-06-03T14:58:35.832Z,34.90
2018-06-03T15:01:04.748Z,35.10
2018-06-03T15:03:33.658Z,34.80
2018-06-03T15:06:02.624Z,34.80
2018-06-03T15:08:31.527Z,34.90
2018-06-03T15:11:00.407Z,34.80
2018-06-03T15:13:29.332Z,35.00
2018-06-03T15:15:58.279Z,34.70
2018-06-03T15:18:27.187Z,34.30
2018-06-03T15:20:56.487Z,34.40
2018-06-03T15:23:25.427Z,34.50
2018-06-03T15:25:54.391Z,34.60
2018-06-03T15:28:23.282Z,34.70
2018-06-03T15:30:52.175Z,35.30
2018-06-03T15:33:21.053Z,34.80
2018-06-03T15:35:49.951Z,34.90
2018-06-03T15:38:18.839Z,35.30
2018-06-03T15:40:47.751Z,35.40
2018-06-03T15:43:16.733Z,34.60
2018-06-03T15:45:45.619Z,35.20
2018-06-03T15:48:14.583Z,34.90
2018-06-03T15:50:43.480Z,35.40
2018-06-03T15:53:12.359Z,35.80
2018-06-03T15:55:41.464Z,35.70
2018-06-03T15:58:10.441Z,36.00
2018-06-03T16:00:39.519Z,36.20
2018-06-03T16:03:08.733Z,35.80
2018-06-03T16:05:37.469Z,36.20
2018-06-03T16:08:06.360Z,36.50
2018-06-03T16:10:36.300Z,36.80
2018-06-03T16:13:05.488Z,36.70
2018-06-03T16:15:34.391Z,36.70
2018-06-03T16:18:03.399Z,36.20
2018-06-03T16:20:32.320Z,35.30
2018-06-03T16:23:01.231Z,35.00
2018-06-03T16:25:30.597Z,35.30
2018-06-03T16:27:59.703Z,35.30
2018-06-03T16:30:29.271Z,35.80
2018-06-03T16:32:58.509Z,35.90
2018-06-03T16:35:27.507Z,35.50
2018-06-03T16:37:57.720Z,35.90
2018-06-03T16:40:26.821Z,35.00
2018-06-03T16:42:56.409Z,35.10
2018-06-03T16:45:26.721Z,35.70
2018-06-03T16:47:56.015Z,36.10
2018-06-03T16:50:25.084Z,36.00
2018-06-03T16:52:54.393Z,36.10
2018-06-03T16:55:23.488Z,36.90
2018-06-03T16:57:52.458Z,36.80
2018-06-03T17:00:21.576Z,37.00
2018-06-03T17:02:50.523Z,36.90
2018-06-03T17:05:19.471Z,36.60
2018-06-03T17:07:48.349Z,36.00
2018-06-03T17:12:45.743Z,35.70
2018-06-03T17:15:14.611Z,35.90
2018-06-03T17:17:43.504Z,36.00
2018-06-03T17:20:12.427Z,36.40
2018-06-03T17:22:41.300Z,36.10
2018-06-03T17:25:10.171Z,36.00
2018-06-03T17:27:39.055Z,36.20
2018-06-03T17:30:07.927Z,36.30
2018-06-03T17:32:36.822Z,35.90
2018-06-03T17:35:05.715Z,35.60
2018-06-03T17:37:34.733Z,35.10
2018-06-03T17:40:03.767Z,33.70
2018-06-03T17:42:32.755Z,32.70
2018-06-03T17:45:01.720Z,32.20
2018-06-03T17:47:30.636Z,32.10
2018-06-03T17:49:59.567Z,31.80
2018-06-03T17:52:28.571Z,31.80
2018-06-03T17:54:57.802Z,31.30
2018-06-03T17:57:26.663Z,31.30
2018-06-03T17:59:55.587Z,30.90
2018-06-03T18:02:24.520Z,30.40
2018-06-03T18:04:53.739Z,29.90
2018-06-03T18:07:22.798Z,29.20
2018-06-03T18:09:51.668Z,28.80
2018-06-03T18:12:20.547Z,28.50
2018-06-03T18:14:49.435Z,28.20
2018-06-03T18:17:18.342Z,28.10
2018-06-03T18:19:47.224Z,27.70
2018-06-03T18:22:16.132Z,27.70
2018-06-03T18:24:45.017Z,27.50
2018-06-03T18:27:13.979Z,27.10
2018-06-03T18:29:42.860Z,27.00
2018-06-03T18:32:11.779Z,27.10
2018-06-03T18:34:40.663Z,27.10
2018-06-03T18:37:09.555Z,26.90
2018-06-03T18:39:38.443Z,26.80
2018-06-03T18:42:07.383Z,26.60
2018-06-03T18:44:36.270Z,26.50
2018-06-03T18:47:05.274Z,26.50
2018-06-03T18:52:02.599Z,26.40
2018-06-03T18:54:31.494Z,26.30
2018-06-03T18:57:00.403Z,26.30
2018-06-03T18:59:29.463Z,26.20
2018-06-03T19:01:58.384Z,26.10
2018-06-03T19:04:28.586Z,26.10
2018-06-03T19:09:26.080Z,25.60
2018-06-03T19:11:55.088Z,25.60
2018-06-03T19:14:23.955Z,25.50
2018-06-03T19:16:52.851Z,25.40
2018-06-03T19:19:21.791Z,25.30
2018-06-03T19:21:50.671Z,25.20
2018-06-03T19:24:19.575Z,25.10
2018-06-03T19:26:48.495Z,25.00
2018-06-03T19:29:17.379Z,24.90
2018-06-03T19:31:46.247Z,24.90
2018-06-03T19:34:15.135Z,24.90
2018-06-03T19:36:44.015Z,24.70
2018-06-03T19:39:12.939Z,24.70
2018-06-03T19:41:41.812Z,24.60
2018-06-03T19:44:10.875Z,24.50
2018-06-03T19:46:39.764Z,24.40
2018-06-03T19:49:08.655Z,24.20
2018-06-03T19:51:37.530Z,24.10
2018-06-03T19:54:06.429Z,23.90
2018-06-03T19:56:35.330Z,23.80
2018-06-03T19:59:04.276Z,23.80
2018-06-03T20:01:33.160Z,23.80
2018-06-03T20:04:02.067Z,23.70
2018-06-03T20:06:31.661Z,23.50
2018-06-03T20:09:00.571Z,23.30
2018-06-03T20:11:29.499Z,23.20
2018-06-03T20:13:58.433Z,23.20
2018-06-03T20:16:27.400Z,23.30
2018-06-03T20:18:56.403Z,23.30
2018-06-03T20:21:25.358Z,23.20
2018-06-03T20:23:54.459Z,23.00
2018-06-03T20:26:23.343Z,23.00
2018-06-03T20:28:52.263Z,22.90
2018-06-03T20:31:21.176Z,22.90
2018-06-03T20:33:50.210Z,22.80
2018-06-03T20:36:19.656Z,22.70
2018-06-03T20:38:48.587Z,22.50
2018-06-03T20:41:17.510Z,22.60
2018-06-03T20:43:46.419Z,22.60
2018-06-03T20:46:15.562Z,22.60
2018-06-03T20:48:44.476Z,22.60
2018-06-03T20:51:13.374Z,22.60
2018-06-03T20:53:42.404Z,22.60
2018-06-03T20:56:11.290Z,22.60
2018-06-03T20:58:40.210Z,22.60
2018-06-03T21:01:09.172Z,22.60
2018-06-03T21:03:38.152Z,22.60
2018-06-03T21:06:08.063Z,22.50
2018-06-03T21:08:37.099Z,22.30
2018-06-03T21:11:06.040Z,22.30
2018-06-03T21:13:34.995Z,22.30
2018-06-03T21:16:05.023Z,22.20
2018-06-03T21:18:33.943Z,22.20
2018-06-03T21:21:03.076Z,22.10
2018-06-03T21:23:32.041Z,22.00
2018-06-03T21:26:01.164Z,22.00
2018-06-03T21:28:30.187Z,21.90
2018-06-03T21:30:59.123Z,21.90
2018-06-03T21:33:28.838Z,21.80
2018-06-03T21:35:57.830Z,21.70
2018-06-03T21:38:26.756Z,21.70
2018-06-03T21:43:24.251Z,21.50
2018-06-03T21:45:53.263Z,21.20
2018-06-03T21:48:22.184Z,21.20
2018-06-03T21:50:51.103Z,21.10
2018-06-03T21:53:19.991Z,21.10
2018-06-03T21:55:48.900Z,21.10
2018-06-03T21:58:17.849Z,21.00
2018-06-03T22:00:46.748Z,21.10
2018-06-03T22:03:15.622Z,21.00
2018-06-03T22:05:44.544Z,21.00
2018-06-03T22:08:13.435Z,21.00
2018-06-03T22:10:42.328Z,21.00
2018-06-03T22:13:11.327Z,20.80
2018-06-03T22:15:40.214Z,20.90
2018-06-03T22:18:09.144Z,20.80
2018-06-03T22:20:37.995Z,20.80
2018-06-03T22:23:06.894Z,20.80
2018-06-03T22:25:35.793Z,20.70
2018-06-03T22:28:04.719Z,20.70
2018-06-03T22:30:33.619Z,20.70
2018-06-03T22:33:02.507Z,20.60
2018-06-03T22:35:31.443Z,20.50
2018-06-03T22:38:00.334Z,20.50
2018-06-03T22:40:29.272Z,20.50
2018-06-03T22:42:58.210Z,20.50
2018-06-03T22:45:27.178Z,20.50
2018-06-03T22:47:56.067Z,20.50
2018-06-03T22:50:24.970Z,20.50
2018-06-03T22:52:53.856Z,20.50
2018-06-03T22:55:22.747Z,20.50
2018-06-03T22:57:54.550Z,20.40
2018-06-03T23:00:29.163Z,20.40
2018-06-03T23:03:03.410Z,20.20
2018-06-03T23:05:32.315Z,20.20
2018-06-03T23:08:01.246Z,20.10
2018-06-03T23:10:30.191Z,20.10
2018-06-03T23:12:59.135Z,20.00
2018-06-03T23:15:28.068Z,20.10
2018-06-03T23:17:57.293Z,20.10
2018-06-03T23:20:26.215Z,20.00
2018-06-03T23:22:55.533Z,19.90
2018-06-03T23:25:24.479Z,19.80
2018-06-03T23:27:53.379Z,19.70
2018-06-03T23:30:22.247Z,19.70
2018-06-03T23:32:51.158Z,19.70
2018-06-03T23:35:21.122Z,19.70
2018-06-03T23:37:50.027Z,19.80
2018-06-03T23:40:18.919Z,19.80
2018-06-03T23:42:47.809Z,19.70
2018-06-03T23:45:16.715Z,19.70
2018-06-03T23:47:45.654Z,19.60
2018-06-03T23:50:14.543Z,19.50
2018-06-03T23:52:43.434Z,19.40
2018-06-03T23:55:12.319Z,19.50
2018-06-03T23:57:41.226Z,19.50
